Weather at Prince George Regional Medical Center Heliport

Public forecast

Using degrees Fahrenheit for public forecast. Weather courtesy of forecast.io.

Closest aviation weather report (METAR) to Prince George Regional Medical Center Heliport

Closest report is Joint Base Andrews, 5.6 nm (10.4 km) S.

2024/06/22 10:55 (retrieved 52 minutes ago)

KADW 221055Z AUTO 21009KT 10SM CLR 25/19 A3006 RMK AO2 SLP183 T02470186

Closest aviation forecast (TAF) to Prince George Regional Medical Center Heliport

Closest forecast is Joint Base Andrews, 5.6 nm (10.4 km) S.

2024/06/22 09:18 (retrieved 2 hours ago)

TAF TAF KADW 220900Z 2209/2315 21006KT 9999 FEW070 FEW250 QNH2990INS BECMG 2222/2223 18006KT 9999 FEW060 QNH2991INS BECMG 2303/2304 19009KT 9999 SCT090 SCT250 510052 QNH2985INS BECMG 2311/2312 22012G22KT 9999 FEW250 510002 QNH2982INS TX36/2219Z TN22/2210Z